createdAt,value
2022-07-31T00:00:23.749Z,97700.56
2022-07-31T00:02:52.371Z,97699.69
2022-07-31T00:05:20.243Z,97704.56
2022-07-31T00:07:49.652Z,97692.63
2022-07-31T00:10:17.618Z,97689.91
2022-07-31T00:12:45.697Z,97684.78
2022-07-31T00:15:13.973Z,97690.03
2022-07-31T00:17:42.108Z,97684.53
2022-07-31T00:20:13.628Z,97686.84
2022-07-31T00:22:41.866Z,97683.50
2022-07-31T00:25:11.619Z,97689.19
2022-07-31T00:27:39.814Z,97684.72
2022-07-31T00:30:08.470Z,97688.22
2022-07-31T00:32:36.621Z,97688.97
2022-07-31T00:35:04.693Z,97687.25
2022-07-31T00:37:32.912Z,97682.84
2022-07-31T00:40:01.111Z,97684.41
2022-07-31T00:42:30.490Z,97677.44
2022-07-31T00:44:58.423Z,97672.78
2022-07-31T00:47:28.351Z,97667.47
2022-07-31T00:49:58.599Z,97668.19
2022-07-31T00:52:27.738Z,97667.22
2022-07-31T00:54:55.893Z,97666.88
2022-07-31T00:57:23.692Z,97665.66
2022-07-31T00:59:52.829Z,97660.22
2022-07-31T01:02:20.711Z,97659.75
2022-07-31T01:04:48.568Z,97658.09
2022-07-31T01:07:16.422Z,97658.34
2022-07-31T01:09:45.047Z,97648.38
2022-07-31T01:12:15.066Z,97656.41
2022-07-31T01:14:44.930Z,97652.06
2022-07-31T01:17:14.247Z,97656.16
2022-07-31T01:19:43.531Z,97657.03
2022-07-31T01:22:32.960Z,97651.22
2022-07-31T01:25:07.924Z,97654.59
2022-07-31T01:27:49.790Z,97654.59
2022-07-31T01:30:19.425Z,97659.84
2022-07-31T01:32:49.419Z,97658.78
2022-07-31T01:35:19.138Z,97663.91
2022-07-31T01:37:48.912Z,97653.81
2022-07-31T01:40:19.746Z,97654.41
2022-07-31T01:42:51.357Z,97659.59
2022-07-31T01:45:21.283Z,97649.63
2022-07-31T01:47:49.136Z,97653.31
2022-07-31T01:50:42.764Z,97651.31
2022-07-31T01:53:07.867Z,97651.44
2022-07-31T01:56:02.607Z,97646.19
2022-07-31T01:58:23.873Z,97640.56
2022-07-31T02:00:53.905Z,97643.56
2022-07-31T02:03:43.485Z,97647.50
2022-07-31T02:06:10.573Z,97647.59
2022-07-31T02:08:38.429Z,97646.75
2022-07-31T02:11:06.300Z,97642.06
2022-07-31T02:13:36.618Z,97643.28
2022-07-31T02:16:06.255Z,97644.88
2022-07-31T02:18:34.136Z,97638.78
2022-07-31T02:21:02.161Z,97639.16
2022-07-31T02:23:30.355Z,97639.63
2022-07-31T02:25:58.291Z,97643.06
2022-07-31T02:28:26.131Z,97636.44
2022-07-31T02:30:54.020Z,97644.03
2022-07-31T02:33:25.665Z,97639.44
2022-07-31T02:35:55.495Z,97639.91
2022-07-31T02:38:26.283Z,97639.50
2022-07-31T02:40:57.931Z,97638.22
2022-07-31T02:43:26.841Z,97635.88
2022-07-31T02:45:54.877Z,97640.91
2022-07-31T02:48:24.114Z,97627.63
2022-07-31T02:50:51.920Z,97635.28
2022-07-31T02:53:20.128Z,97635.28
2022-07-31T02:55:47.932Z,97631.34
2022-07-31T02:58:15.786Z,97627.06
2022-07-31T03:00:44.048Z,97624.50
2022-07-31T03:03:11.978Z,97630.69
2022-07-31T03:05:41.164Z,97627.31
2022-07-31T03:08:09.002Z,97622.81
2022-07-31T03:10:36.805Z,97617.16
2022-07-31T03:13:04.679Z,97626.06
2022-07-31T03:15:32.527Z,97621.56
2022-07-31T03:18:00.617Z,97615.03
2022-07-31T03:20:28.686Z,97614.41
2022-07-31T03:22:57.783Z,97616.63
2022-07-31T03:25:25.838Z,97607.94
2022-07-31T03:27:56.108Z,97606.25
2022-07-31T03:30:25.836Z,97606.78
2022-07-31T03:32:53.638Z,97609.31
2022-07-31T03:35:21.468Z,97604.47
2022-07-31T03:37:49.637Z,97610.56
2022-07-31T03:40:19.183Z,97610.63
2022-07-31T03:42:47.072Z,97617.03
2022-07-31T03:45:14.801Z,97616.91
2022-07-31T03:47:42.704Z,97606.34
2022-07-31T03:50:10.782Z,97616.47
2022-07-31T03:52:38.617Z,97615.06
2022-07-31T03:55:07.742Z,97616.19
2022-07-31T03:57:36.966Z,97618.91
2022-07-31T04:00:05.508Z,97615.91
2022-07-31T04:02:35.770Z,97604.81
2022-07-31T04:05:08.059Z,97616.28
2022-07-31T04:07:37.618Z,97621.31
2022-07-31T04:10:05.864Z,97611.09
2022-07-31T04:12:33.685Z,97614.97
2022-07-31T04:15:02.864Z,97618.91
2022-07-31T04:17:30.891Z,97624.16
2022-07-31T04:20:02.258Z,97621.72
2022-07-31T04:22:33.307Z,97621.44
2022-07-31T04:25:01.921Z,97610.09
2022-07-31T04:27:29.984Z,97621.16
2022-07-31T04:29:58.089Z,97620.69
2022-07-31T04:32:27.303Z,97612.69
2022-07-31T04:34:55.339Z,97616.19
2022-07-31T04:37:23.156Z,97614.94
2022-07-31T04:39:50.948Z,97618.91
2022-07-31T04:42:18.791Z,97617.38
2022-07-31T04:44:46.592Z,97614.09
2022-07-31T04:47:14.738Z,97621.22
2022-07-31T04:49:44.207Z,97620.31
2022-07-31T04:52:11.998Z,97614.31
2022-07-31T04:54:39.770Z,97612.97
2022-07-31T04:57:07.644Z,97616.53
2022-07-31T04:59:58.576Z,97613.28
2022-07-31T05:02:23.129Z,97617.03
2022-07-31T05:04:56.513Z,97615.72
2022-07-31T05:07:25.848Z,97613.44
2022-07-31T05:09:56.907Z,97616.09
2022-07-31T05:12:25.083Z,97614.03
2022-07-31T05:14:53.543Z,97610.47
2022-07-31T05:17:21.342Z,97609.91
2022-07-31T05:19:49.417Z,97620.59
2022-07-31T05:22:18.814Z,97621.13
2022-07-31T05:24:46.779Z,97622.00
2022-07-31T05:27:14.637Z,97627.50
2022-07-31T05:29:42.473Z,97620.28
2022-07-31T05:32:10.409Z,97617.28
2022-07-31T05:34:38.390Z,97623.00
2022-07-31T05:37:06.292Z,97616.44
2022-07-31T05:39:35.482Z,97618.31
2022-07-31T05:42:03.719Z,97621.31
2022-07-31T05:44:31.673Z,97619.16
2022-07-31T05:49:29.014Z,97624.06
2022-07-31T05:51:56.838Z,97613.06
2022-07-31T05:54:24.666Z,97607.06
2022-07-31T05:56:53.790Z,97610.34
2022-07-31T05:59:21.581Z,97609.50
2022-07-31T06:01:50.002Z,97606.16
2022-07-31T06:04:18.045Z,97613.47
2022-07-31T06:06:45.787Z,97619.88
2022-07-31T06:09:13.649Z,97614.00
2022-07-31T06:11:41.419Z,97608.75
2022-07-31T06:14:10.955Z,97609.53
2022-07-31T06:16:38.696Z,97612.56
2022-07-31T06:19:06.486Z,97610.00
2022-07-31T06:21:34.272Z,97613.78
2022-07-31T06:24:02.356Z,97611.13
2022-07-31T06:26:30.225Z,97613.91
2022-07-31T06:28:58.009Z,97616.19
2022-07-31T06:31:27.507Z,97609.75
2022-07-31T06:33:55.397Z,97622.41
2022-07-31T06:36:23.215Z,97608.78
2022-07-31T06:38:51.136Z,97602.31
2022-07-31T06:41:33.050Z,97604.66
2022-07-31T06:44:00.902Z,97597.63
2022-07-31T06:46:30.104Z,97599.59
2022-07-31T06:48:57.981Z,97594.63
2022-07-31T06:51:32.987Z,97597.97
2022-07-31T06:54:00.981Z,97596.53
2022-07-31T06:56:28.904Z,97596.13
2022-07-31T06:58:56.729Z,97601.84
2022-07-31T07:01:24.598Z,97602.63
2022-07-31T07:03:54.201Z,97595.41
2022-07-31T07:06:22.301Z,97595.81
2022-07-31T07:08:50.234Z,97590.25
2022-07-31T07:11:20.023Z,97597.09
2022-07-31T07:13:47.989Z,97583.66
2022-07-31T07:16:16.115Z,97589.97
2022-07-31T07:18:44.094Z,97585.59
2022-07-31T07:21:13.446Z,97597.69
2022-07-31T07:23:41.585Z,97597.75
2022-07-31T07:26:09.452Z,97595.41
2022-07-31T07:28:37.365Z,97603.03
2022-07-31T07:31:05.476Z,97598.44
2022-07-31T07:33:41.263Z,97590.13
2022-07-31T07:36:22.472Z,97587.53
2022-07-31T07:38:55.049Z,97576.13
2022-07-31T07:41:24.274Z,97574.25
2022-07-31T07:43:52.513Z,97573.66
2022-07-31T07:46:21.316Z,97582.50
2022-07-31T07:48:50.892Z,97573.00
2022-07-31T07:51:18.899Z,97570.13
2022-07-31T07:53:46.687Z,97565.69
2022-07-31T07:56:15.974Z,97561.50
2022-07-31T07:58:44.055Z,97569.22
2022-07-31T08:01:12.239Z,97566.91
2022-07-31T08:03:50.071Z,97574.75
2022-07-31T08:06:20.625Z,97578.31
2022-07-31T08:08:48.857Z,97567.75
2022-07-31T08:11:18.249Z,97565.25
2022-07-31T08:13:51.242Z,97557.72
2022-07-31T08:16:19.846Z,97555.84
2022-07-31T08:18:48.153Z,97555.84
2022-07-31T08:21:18.317Z,97552.03
2022-07-31T08:23:46.206Z,97549.84
2022-07-31T08:26:14.297Z,97545.47
2022-07-31T08:28:50.539Z,97556.56
2022-07-31T08:31:19.425Z,97557.19
2022-07-31T08:33:47.482Z,97560.44
2022-07-31T08:36:15.478Z,97561.84
2022-07-31T08:38:43.328Z,97556.81
2022-07-31T08:41:11.071Z,97558.78
2022-07-31T08:44:02.604Z,97553.91
2022-07-31T08:46:28.676Z,97558.34
2022-07-31T08:48:57.577Z,97564.63
2022-07-31T08:51:31.111Z,97559.25
2022-07-31T08:54:06.390Z,97558.88
2022-07-31T08:56:39.084Z,97568.28
2022-07-31T08:59:07.626Z,97567.09
2022-07-31T09:01:37.692Z,97557.84
2022-07-31T09:04:05.689Z,97555.09
2022-07-31T09:06:33.597Z,97551.75
2022-07-31T09:09:03.529Z,97565.38
2022-07-31T09:11:34.935Z,97561.81
2022-07-31T09:14:04.004Z,97557.81
2022-07-31T09:16:31.979Z,97557.00
2022-07-31T09:19:02.009Z,97561.81
2022-07-31T09:21:39.770Z,97559.72
2022-07-31T09:24:10.179Z,97563.69
2022-07-31T09:26:40.816Z,97559.72
2022-07-31T09:29:11.910Z,97564.34
2022-07-31T09:31:39.962Z,97565.81
2022-07-31T09:34:09.054Z,97556.78
2022-07-31T09:36:36.875Z,97558.25
2022-07-31T09:39:05.339Z,97569.63
2022-07-31T09:42:02.088Z,97554.47
2022-07-31T09:44:25.940Z,97557.81
2022-07-31T09:46:54.217Z,97562.88
2022-07-31T09:49:32.623Z,97550.25
2022-07-31T09:52:00.690Z,97554.63
2022-07-31T09:54:29.779Z,97545.44
2022-07-31T09:56:57.644Z,97540.38
2022-07-31T09:59:26.727Z,97540.22
2022-07-31T10:01:54.501Z,97544.13
2022-07-31T10:04:22.725Z,97544.38
2022-07-31T10:06:52.987Z,97545.34
2022-07-31T10:09:21.668Z,97547.34
2022-07-31T10:11:50.812Z,97549.59
2022-07-31T10:14:22.362Z,97550.59
2022-07-31T10:16:50.178Z,97555.59
2022-07-31T10:19:18.094Z,97551.56
2022-07-31T10:21:51.981Z,97548.03
2022-07-31T10:24:27.403Z,97542.88
2022-07-31T10:27:00.722Z,97545.09
2022-07-31T10:29:32.489Z,97534.09
2022-07-31T10:32:01.362Z,97539.47
2022-07-31T10:34:29.187Z,97543.09
2022-07-31T10:37:00.130Z,97539.28
2022-07-31T10:39:33.000Z,97528.13
2022-07-31T10:42:06.478Z,97529.84
2022-07-31T10:44:38.704Z,97535.50
2022-07-31T10:47:16.035Z,97529.19
2022-07-31T10:49:44.255Z,97530.78
2022-07-31T10:52:12.664Z,97524.63
2022-07-31T10:54:42.855Z,97521.38
2022-07-31T10:57:10.762Z,97514.22
2022-07-31T10:59:42.913Z,97517.44
2022-07-31T11:02:12.519Z,97511.38
2022-07-31T11:04:40.368Z,97510.81
2022-07-31T11:07:15.782Z,97506.56
2022-07-31T11:09:51.339Z,97513.69
2022-07-31T11:12:19.484Z,97512.19
2022-07-31T11:14:47.294Z,97515.91
2022-07-31T11:17:15.123Z,97519.13
2022-07-31T11:19:44.678Z,97513.00
2022-07-31T11:22:30.872Z,97512.91
2022-07-31T11:25:06.343Z,97513.84
2022-07-31T11:27:39.936Z,97506.00
2022-07-31T11:30:12.802Z,97509.16
2022-07-31T11:32:41.387Z,97498.53
2022-07-31T11:35:10.054Z,97505.34
2022-07-31T11:37:56.256Z,97511.50
2022-07-31T11:40:27.743Z,97510.59
2022-07-31T11:43:25.373Z,97503.19
2022-07-31T11:45:48.250Z,97505.00
2022-07-31T11:48:16.328Z,97498.88
2022-07-31T11:50:46.998Z,97501.44
2022-07-31T11:53:14.848Z,97500.34
2022-07-31T11:55:50.705Z,97495.34
2022-07-31T11:58:19.566Z,97492.78
2022-07-31T12:00:48.819Z,97506.94
2022-07-31T12:03:17.658Z,97495.34
2022-07-31T12:05:46.182Z,97499.28
2022-07-31T12:08:14.498Z,97507.66
2022-07-31T12:10:42.399Z,97507.53
2022-07-31T12:13:16.390Z,97508.47
2022-07-31T12:15:55.626Z,97501.75
2022-07-31T12:18:23.473Z,97509.81
2022-07-31T12:20:54.274Z,97507.72
2022-07-31T12:23:41.182Z,97515.50
2022-07-31T12:26:09.667Z,97502.16
2022-07-31T12:28:38.891Z,97498.94
2022-07-31T12:31:06.738Z,97490.78
2022-07-31T12:33:41.259Z,97500.72
2022-07-31T12:36:16.209Z,97494.28
2022-07-31T12:38:47.652Z,97482.28
2022-07-31T12:41:16.648Z,97483.94
2022-07-31T12:43:51.337Z,97493.28
2022-07-31T12:46:20.140Z,97480.72
2022-07-31T12:48:48.359Z,97487.09
2022-07-31T12:51:16.894Z,97479.28
2022-07-31T12:53:44.670Z,97481.31
2022-07-31T12:56:12.543Z,97479.59
2022-07-31T12:58:40.645Z,97477.53
2022-07-31T13:01:09.846Z,97481.69
2022-07-31T13:03:45.271Z,97478.91
2022-07-31T13:06:14.409Z,97476.53
2022-07-31T13:08:43.866Z,97472.09
2022-07-31T13:11:11.774Z,97464.22
2022-07-31T13:13:39.737Z,97463.75
2022-07-31T13:16:08.905Z,97462.44
2022-07-31T13:18:38.060Z,97453.25
2022-07-31T13:21:05.987Z,97453.47
2022-07-31T13:23:34.078Z,97447.13
2022-07-31T13:26:01.898Z,97450.38
2022-07-31T13:28:30.185Z,97433.97
2022-07-31T13:30:58.684Z,97440.78
2022-07-31T13:33:27.828Z,97436.03
2022-07-31T13:35:55.711Z,97445.91
2022-07-31T13:38:23.470Z,97440.41
2022-07-31T13:41:08.848Z,97434.34
2022-07-31T13:43:36.664Z,97435.53
2022-07-31T13:46:04.751Z,97430.50
2022-07-31T13:48:35.199Z,97443.47
2022-07-31T13:51:03.220Z,97439.00
2022-07-31T13:53:31.016Z,97435.72
2022-07-31T13:55:59.003Z,97435.19
2022-07-31T13:58:28.222Z,97433.66
2022-07-31T14:00:56.266Z,97433.69
2022-07-31T14:03:24.191Z,97437.44
2022-07-31T14:05:55.085Z,97435.38
2022-07-31T14:08:30.712Z,97435.31
2022-07-31T14:11:13.647Z,97442.63
2022-07-31T14:13:42.739Z,97444.72
2022-07-31T14:16:10.598Z,97450.38
2022-07-31T14:18:38.423Z,97457.78
2022-07-31T14:21:08.840Z,97458.75
2022-07-31T14:23:40.725Z,97449.03
2022-07-31T14:26:09.508Z,97445.63
2022-07-31T14:28:37.597Z,97446.97
2022-07-31T14:31:05.378Z,97439.88
2022-07-31T14:33:33.146Z,97439.84
2022-07-31T14:36:00.960Z,97440.19
2022-07-31T14:38:30.466Z,97439.09
2022-07-31T14:40:58.271Z,97431.69
2022-07-31T14:43:26.084Z,97427.41
2022-07-31T14:45:53.884Z,97430.84
2022-07-31T14:48:21.980Z,97426.41
2022-07-31T14:50:50.044Z,97423.66
2022-07-31T14:53:17.830Z,97426.06
2022-07-31T14:55:46.977Z,97412.06
2022-07-31T14:58:14.896Z,97413.97
2022-07-31T15:00:42.707Z,97402.19
2022-07-31T15:03:10.584Z,97407.06
2022-07-31T15:06:41.656Z,97399.53
2022-07-31T15:08:27.066Z,97405.28
2022-07-31T15:10:56.218Z,97407.03
2022-07-31T15:13:24.154Z,97402.25
2022-07-31T15:15:52.061Z,97397.03
2022-07-31T15:18:26.093Z,97389.59
2022-07-31T15:24:30.534Z,97388.44
2022-07-31T15:26:59.764Z,97388.66
2022-07-31T15:30:05.919Z,97396.53
2022-07-31T15:32:15.381Z,97390.34
2022-07-31T15:34:44.969Z,97376.97
2022-07-31T15:37:20.350Z,97385.44
2022-07-31T15:40:02.436Z,97381.16
2022-07-31T15:42:33.294Z,97373.00
2022-07-31T15:45:01.185Z,97379.84
2022-07-31T15:47:29.004Z,97368.06
2022-07-31T15:49:56.835Z,97371.13
2022-07-31T15:52:25.219Z,97363.28
2022-07-31T15:54:53.450Z,97365.69
2022-07-31T15:57:21.415Z,97368.44
2022-07-31T15:59:50.979Z,97366.88
2022-07-31T16:02:18.792Z,97363.81
2022-07-31T16:04:53.287Z,97359.03
2022-07-31T16:08:30.685Z,97359.38
2022-07-31T16:10:15.399Z,97357.19
2022-07-31T16:12:44.024Z,97356.13
2022-07-31T16:15:17.293Z,97351.63
2022-07-31T16:17:46.336Z,97351.13
2022-07-31T16:20:25.735Z,97348.16
2022-07-31T16:22:55.918Z,97349.38
2022-07-31T16:25:23.841Z,97341.44
2022-07-31T16:27:52.568Z,97338.31
2022-07-31T16:30:22.200Z,97342.22
2022-07-31T16:32:50.326Z,97341.44
2022-07-31T16:35:18.272Z,97328.75
2022-07-31T16:37:52.223Z,97329.09
2022-07-31T16:40:29.063Z,97327.34
2022-07-31T16:43:01.920Z,97326.50
2022-07-31T16:45:31.424Z,97318.28
2022-07-31T16:47:59.303Z,97322.72
2022-07-31T16:50:27.464Z,97314.00
2022-07-31T16:52:55.551Z,97319.09
2022-07-31T16:55:46.984Z,97319.31
2022-07-31T16:58:13.846Z,97318.84
2022-07-31T17:00:43.199Z,97321.47
2022-07-31T17:03:59.204Z,97329.72
2022-07-31T17:05:59.130Z,97327.78
2022-07-31T17:08:28.841Z,97324.56
2022-07-31T17:10:56.659Z,97319.13
2022-07-31T17:13:24.468Z,97318.59
2022-07-31T17:15:53.667Z,97325.06
2022-07-31T17:18:25.182Z,97313.44
2022-07-31T17:20:55.888Z,97318.09
2022-07-31T17:23:43.629Z,97322.03
2022-07-31T17:26:20.728Z,97315.16
2022-07-31T17:28:49.743Z,97313.44
2022-07-31T17:31:19.802Z,97316.84
2022-07-31T17:33:58.217Z,97323.78
2022-07-31T17:36:28.854Z,97319.47
2022-07-31T17:38:56.818Z,97324.84
2022-07-31T17:41:25.917Z,97330.47
2022-07-31T17:43:57.122Z,97321.03
2022-07-31T17:46:34.581Z,97318.47
2022-07-31T17:49:06.077Z,97320.00
2022-07-31T17:51:34.302Z,97322.97
2022-07-31T17:54:02.286Z,97327.53
2022-07-31T17:56:30.349Z,97315.09
2022-07-31T17:59:04.733Z,97317.94
2022-07-31T18:01:34.700Z,97317.56
2022-07-31T18:04:03.080Z,97315.28
2022-07-31T18:06:31.141Z,97319.06
2022-07-31T18:08:59.237Z,97329.44
2022-07-31T18:11:27.334Z,97324.66
2022-07-31T18:13:55.682Z,97326.16
2022-07-31T18:16:29.438Z,97334.56
2022-07-31T18:18:58.821Z,97330.00
2022-07-31T18:21:26.804Z,97321.41
2022-07-31T18:23:54.812Z,97326.44
2022-07-31T18:26:23.693Z,97326.75
2022-07-31T18:28:51.668Z,97339.47
2022-07-31T18:31:34.160Z,97371.94
2022-07-31T18:34:05.547Z,97402.47
2022-07-31T18:36:33.610Z,97418.47
2022-07-31T18:39:02.038Z,97425.03
2022-07-31T18:41:30.152Z,97424.16
2022-07-31T18:43:58.164Z,97415.31
2022-07-31T18:46:26.204Z,97425.69
2022-07-31T18:48:55.838Z,97413.00
2022-07-31T18:51:25.904Z,97408.19
2022-07-31T18:53:54.482Z,97409.47
2022-07-31T18:56:23.479Z,97406.41
2022-07-31T18:58:51.835Z,97410.94
2022-07-31T19:01:19.892Z,97405.22
2022-07-31T19:03:48.010Z,97410.84
2022-07-31T19:06:18.190Z,97412.53
2022-07-31T19:15:39.744Z,97411.31
2022-07-31T19:18:07.989Z,97416.19
2022-07-31T19:20:56.686Z,97421.44
2022-07-31T19:23:24.682Z,97419.53
2022-07-31T19:26:03.560Z,97427.88
2022-07-31T19:28:33.040Z,97439.50
2022-07-31T19:31:01.313Z,97437.31
2022-07-31T19:33:29.816Z,97439.25
2022-07-31T19:36:01.855Z,97457.03
2022-07-31T19:38:31.117Z,97459.78
2022-07-31T19:41:00.746Z,97448.34
2022-07-31T19:43:28.996Z,97467.06
2022-07-31T19:46:00.461Z,97468.72
2022-07-31T19:48:41.167Z,97476.59
2022-07-31T19:51:09.484Z,97484.34
2022-07-31T19:53:38.709Z,97488.38
2022-07-31T19:56:08.741Z,97489.59
2022-07-31T19:58:37.261Z,97489.03
2022-07-31T20:01:05.614Z,97489.59
2022-07-31T20:03:34.004Z,97493.81
2022-07-31T20:06:02.440Z,97495.34
2022-07-31T20:08:33.069Z,97492.84
2022-07-31T20:11:04.014Z,97491.28
2022-07-31T20:13:37.826Z,97496.09
2022-07-31T20:16:06.868Z,97496.88
2022-07-31T20:18:35.347Z,97488.84
2022-07-31T20:21:04.893Z,97496.47
2022-07-31T20:23:34.543Z,97493.38
2022-07-31T20:26:03.367Z,97495.75
2022-07-31T20:28:31.568Z,97493.19
2022-07-31T20:31:01.135Z,97500.75
2022-07-31T20:33:29.374Z,97506.28
2022-07-31T20:35:57.627Z,97505.22
2022-07-31T20:38:25.930Z,97513.06
2022-07-31T20:40:55.838Z,97504.81
2022-07-31T20:43:24.699Z,97506.97
2022-07-31T20:45:53.089Z,97511.53
2022-07-31T20:48:24.679Z,97506.06
2022-07-31T20:50:53.153Z,97507.47
2022-07-31T20:53:23.164Z,97511.53
2022-07-31T20:55:51.425Z,97512.81
2022-07-31T20:58:19.762Z,97517.56
2022-07-31T21:00:48.699Z,97510.78
2022-07-31T21:03:17.298Z,97512.63
2022-07-31T21:05:47.293Z,97524.72
2022-07-31T21:08:15.473Z,97518.22
2022-07-31T21:10:43.761Z,97521.56
2022-07-31T21:13:12.580Z,97522.81
2022-07-31T21:15:44.800Z,97522.81
2022-07-31T21:18:14.010Z,97526.59
2022-07-31T21:20:50.751Z,97524.25
2022-07-31T21:23:24.858Z,97528.38
2022-07-31T21:25:54.569Z,97528.09
2022-07-31T21:28:22.885Z,97531.38
2022-07-31T21:30:53.119Z,97527.97
2022-07-31T21:33:21.460Z,97525.94
2022-07-31T21:35:49.921Z,97536.34
2022-07-31T21:38:18.092Z,97532.69
2022-07-31T21:40:49.110Z,97534.28
2022-07-31T21:43:22.089Z,97536.53
2022-07-31T21:45:57.690Z,97532.41
2022-07-31T21:48:30.797Z,97532.38
2022-07-31T21:50:59.305Z,97534.28
2022-07-31T21:53:27.777Z,97536.78
2022-07-31T21:55:57.921Z,97544.09
2022-07-31T21:58:44.951Z,97546.03
2022-07-31T22:01:15.143Z,97537.31
2022-07-31T22:03:43.578Z,97536.38
2022-07-31T22:06:26.404Z,97545.69
2022-07-31T22:08:54.758Z,97547.53
2022-07-31T22:11:24.454Z,97545.63
2022-07-31T22:13:52.652Z,97546.78
2022-07-31T22:16:20.846Z,97541.56
2022-07-31T22:18:49.632Z,97548.38
2022-07-31T22:21:19.653Z,97544.06
2022-07-31T22:23:48.121Z,97546.88
2022-07-31T22:26:16.488Z,97551.84
2022-07-31T22:28:46.114Z,97555.34
2022-07-31T22:31:14.662Z,97549.97
2022-07-31T22:33:43.021Z,97554.97
2022-07-31T22:36:11.609Z,97545.31
2022-07-31T22:38:39.816Z,97552.25
2022-07-31T22:41:08.142Z,97549.91
2022-07-31T22:44:10.530Z,97551.41
2022-07-31T22:46:26.505Z,97554.97
2022-07-31T22:48:55.592Z,97559.38
2022-07-31T22:51:24.231Z,97553.94
2022-07-31T22:53:52.430Z,97558.91
2022-07-31T22:56:20.622Z,97559.00
2022-07-31T22:58:48.835Z,97554.31
2022-07-31T23:01:17.049Z,97560.88
2022-07-31T23:03:46.595Z,97555.63
2022-07-31T23:06:30.518Z,97559.28
2022-07-31T23:09:00.156Z,97554.41
2022-07-31T23:11:28.491Z,97560.78
2022-07-31T23:13:56.681Z,97559.09
2022-07-31T23:16:26.148Z,97557.22
2022-07-31T23:18:55.734Z,97557.94
2022-07-31T23:21:24.241Z,97556.63
2022-07-31T23:23:52.528Z,97564.88
2022-07-31T23:26:20.838Z,97559.16
2022-07-31T23:28:49.244Z,97556.00
2022-07-31T23:31:17.483Z,97561.81
2022-07-31T23:33:46.077Z,97557.75
2022-07-31T23:36:15.774Z,97559.56
2022-07-31T23:38:44.040Z,97556.06
2022-07-31T23:41:12.973Z,97560.03
2022-07-31T23:43:40.493Z,97560.22
2022-07-31T23:46:08.697Z,97551.41
2022-07-31T23:48:36.856Z,97551.41
2022-07-31T23:51:07.916Z,97556.47
2022-07-31T23:53:37.454Z,97561.00
2022-07-31T23:56:05.925Z,97557.22
2022-07-31T23:58:46.727Z,97556.66
